sensor_id;sensor_type;location;lat;lon;timestamp;temperature;humidity
26182;DHT22;13927;51.534;11.866;2023-06-22T00:01:54;22.00;99.90
26182;DHT22;13927;51.534;11.866;2023-06-22T00:04:23;22.00;99.90
26182;DHT22;13927;51.534;11.866;2023-06-22T00:06:51;22.00;99.90
26182;DHT22;13927;51.534;11.866;2023-06-22T00:09:21;22.00;99.90
26182;DHT22;13927;51.534;11.866;2023-06-22T00:11:48;22.00;99.90
26182;DHT22;13927;51.534;11.866;2023-06-22T00:14:16;22.00;99.90
26182;DHT22;13927;51.534;11.866;2023-06-22T00:16:42;22.00;99.90
26182;DHT22;13927;51.534;11.866;2023-06-22T00:19:09;21.90;99.90
26182;DHT22;13927;51.534;11.866;2023-06-22T00:21:38;21.90;99.90
26182;DHT22;13927;51.534;11.866;2023-06-22T00:24:04;21.90;99.90
26182;DHT22;13927;51.534;11.866;2023-06-22T00:26:35;21.90;99.90
26182;DHT22;13927;51.534;11.866;2023-06-22T00:29:01;21.90;99.90
26182;DHT22;13927;51.534;11.866;2023-06-22T00:31:28;21.90;99.90
26182;DHT22;13927;51.534;11.866;2023-06-22T00:33:54;21.90;99.90
26182;DHT22;13927;51.534;11.866;2023-06-22T00:36:20;21.90;99.90
26182;DHT22;13927;51.534;11.866;2023-06-22T00:38:47;21.80;99.90
26182;DHT22;13927;51.534;11.866;2023-06-22T00:41:14;21.80;99.90
26182;DHT22;13927;51.534;11.866;2023-06-22T00:43:40;21.70;99.90
26182;DHT22;13927;51.534;11.866;2023-06-22T00:46:14;21.70;99.90
26182;DHT22;13927;51.534;11.866;2023-06-22T00:48:47;21.60;99.90
26182;DHT22;13927;51.534;11.866;2023-06-22T00:51:16;21.60;99.90
26182;DHT22;13927;51.534;11.866;2023-06-22T00:53:50;21.60;99.90
26182;DHT22;13927;51.534;11.866;2023-06-22T00:56:17;21.60;99.90
26182;DHT22;13927;51.534;11.866;2023-06-22T00:58:46;21.50;99.90
26182;DHT22;13927;51.534;11.866;2023-06-22T01:01:14;21.50;99.90
26182;DHT22;13927;51.534;11.866;2023-06-22T01:03:58;21.50;99.90
26182;DHT22;13927;51.534;11.866;2023-06-22T01:06:35;21.50;99.90
26182;DHT22;13927;51.534;11.866;2023-06-22T01:09:52;21.50;99.90
26182;DHT22;13927;51.534;11.866;2023-06-22T01:13:06;21.40;99.90
26182;DHT22;13927;51.534;11.866;2023-06-22T01:15:46;21.40;99.90
26182;DHT22;13927;51.534;11.866;2023-06-22T01:18:31;21.40;99.90
26182;DHT22;13927;51.534;11.866;2023-06-22T01:21:07;21.40;99.90
26182;DHT22;13927;51.534;11.866;2023-06-22T01:24:22;21.40;99.90
26182;DHT22;13927;51.534;11.866;2023-06-22T01:30:36;21.50;99.90
26182;DHT22;13927;51.534;11.866;2023-06-22T01:33:05;21.50;99.90
26182;DHT22;13927;51.534;11.866;2023-06-22T01:35:32;21.50;99.90
26182;DHT22;13927;51.534;11.866;2023-06-22T01:38:00;21.40;99.90
26182;DHT22;13927;51.534;11.866;2023-06-22T01:40:28;21.30;99.90
26182;DHT22;13927;51.534;11.866;2023-06-22T01:42:56;21.30;99.90
26182;DHT22;13927;51.534;11.866;2023-06-22T01:45:22;21.30;99.90
26182;DHT22;13927;51.534;11.866;2023-06-22T01:47:54;21.30;99.90
26182;DHT22;13927;51.534;11.866;2023-06-22T01:50:21;21.30;99.90
26182;DHT22;13927;51.534;11.866;2023-06-22T01:52:47;21.30;99.90
26182;DHT22;13927;51.534;11.866;2023-06-22T01:55:26;21.20;99.90
26182;DHT22;13927;51.534;11.866;2023-06-22T01:57:55;21.20;99.90
26182;DHT22;13927;51.534;11.866;2023-06-22T02:00:31;21.20;99.90
26182;DHT22;13927;51.534;11.866;2023-06-22T02:03:23;21.20;99.90
26182;DHT22;13927;51.534;11.866;2023-06-22T02:06:13;21.20;99.90
26182;DHT22;13927;51.534;11.866;2023-06-22T02:08:55;21.10;99.90
26182;DHT22;13927;51.534;11.866;2023-06-22T02:11:28;21.10;99.90
26182;DHT22;13927;51.534;11.866;2023-06-22T02:13:58;21.00;99.90
26182;DHT22;13927;51.534;11.866;2023-06-22T02:16:25;21.00;99.90
26182;DHT22;13927;51.534;11.866;2023-06-22T02:19:01;21.00;99.90
26182;DHT22;13927;51.534;11.866;2023-06-22T02:21:34;20.90;99.90
26182;DHT22;13927;51.534;11.866;2023-06-22T02:24:00;20.90;99.90
26182;DHT22;13927;51.534;11.866;2023-06-22T02:26:27;20.90;99.90
26182;DHT22;13927;51.534;11.866;2023-06-22T02:28:54;20.90;99.90
26182;DHT22;13927;51.534;11.866;2023-06-22T02:31:21;20.90;99.90
26182;DHT22;13927;51.534;11.866;2023-06-22T02:33:48;20.90;99.90
26182;DHT22;13927;51.534;11.866;2023-06-22T02:36:17;20.80;99.90
26182;DHT22;13927;51.534;11.866;2023-06-22T02:38:50;20.80;99.90
26182;DHT22;13927;51.534;11.866;2023-06-22T02:41:20;20.70;99.90
26182;DHT22;13927;51.534;11.866;2023-06-22T02:43:49;20.70;99.90
26182;DHT22;13927;51.534;11.866;2023-06-22T02:46:21;20.70;99.90
26182;DHT22;13927;51.534;11.866;2023-06-22T02:48:50;20.60;99.90
26182;DHT22;13927;51.534;11.866;2023-06-22T02:51:20;20.60;99.90
26182;DHT22;13927;51.534;11.866;2023-06-22T02:53:57;20.60;99.90
26182;DHT22;13927;51.534;11.866;2023-06-22T02:56:31;20.50;99.90
26182;DHT22;13927;51.534;11.866;2023-06-22T02:58:59;20.50;99.90
26182;DHT22;13927;51.534;11.866;2023-06-22T03:01:29;20.40;99.90
26182;DHT22;13927;51.534;11.866;2023-06-22T03:04:11;20.30;99.90
26182;DHT22;13927;51.534;11.866;2023-06-22T03:06:40;20.30;99.90
26182;DHT22;13927;51.534;11.866;2023-06-22T03:09:19;20.20;99.90
26182;DHT22;13927;51.534;11.866;2023-06-22T03:11:47;20.30;99.90
26182;DHT22;13927;51.534;11.866;2023-06-22T03:14:18;20.20;99.90
26182;DHT22;13927;51.534;11.866;2023-06-22T03:16:49;20.30;99.90
26182;DHT22;13927;51.534;11.866;2023-06-22T03:19:20;20.30;99.90
26182;DHT22;13927;51.534;11.866;2023-06-22T03:21:47;20.30;99.90
26182;DHT22;13927;51.534;11.866;2023-06-22T03:24:18;20.20;99.90
26182;DHT22;13927;51.534;11.866;2023-06-22T03:26:56;20.20;99.90
26182;DHT22;13927;51.534;11.866;2023-06-22T03:29:27;20.20;99.90
26182;DHT22;13927;51.534;11.866;2023-06-22T03:32:20;20.10;99.90
26182;DHT22;13927;51.534;11.866;2023-06-22T03:34:48;20.10;99.90
26182;DHT22;13927;51.534;11.866;2023-06-22T03:37:27;20.20;99.90
26182;DHT22;13927;51.534;11.866;2023-06-22T03:40:13;20.20;99.90
26182;DHT22;13927;51.534;11.866;2023-06-22T03:43:12;20.20;99.90
26182;DHT22;13927;51.534;11.866;2023-06-22T03:45:46;20.30;99.90
26182;DHT22;13927;51.534;11.866;2023-06-22T03:48:17;20.30;99.90
26182;DHT22;13927;51.534;11.866;2023-06-22T03:50:51;20.40;99.90
26182;DHT22;13927;51.534;11.866;2023-06-22T03:53:23;20.40;99.90
26182;DHT22;13927;51.534;11.866;2023-06-22T03:56:03;20.40;99.90
26182;DHT22;13927;51.534;11.866;2023-06-22T03:58:41;20.40;99.90
26182;DHT22;13927;51.534;11.866;2023-06-22T04:01:12;20.40;99.90
26182;DHT22;13927;51.534;11.866;2023-06-22T04:03:45;20.50;99.90
26182;DHT22;13927;51.534;11.866;2023-06-22T04:06:16;20.50;99.90
26182;DHT22;13927;51.534;11.866;2023-06-22T04:08:51;20.60;99.90
26182;DHT22;13927;51.534;11.866;2023-06-22T04:11:53;20.60;99.90
26182;DHT22;13927;51.534;11.866;2023-06-22T04:14:31;20.70;99.90
26182;DHT22;13927;51.534;11.866;2023-06-22T04:16:59;20.80;99.90
26182;DHT22;13927;51.534;11.866;2023-06-22T04:19:31;20.80;99.90
26182;DHT22;13927;51.534;11.866;2023-06-22T04:21:59;20.90;99.90
26182;DHT22;13927;51.534;11.866;2023-06-22T04:24:29;20.90;99.90
26182;DHT22;13927;51.534;11.866;2023-06-22T04:26:58;21.00;99.90
26182;DHT22;13927;51.534;11.866;2023-06-22T04:29:38;21.00;99.90
26182;DHT22;13927;51.534;11.866;2023-06-22T04:32:18;21.10;99.90
26182;DHT22;13927;51.534;11.866;2023-06-22T04:34:47;21.20;99.90
26182;DHT22;13927;51.534;11.866;2023-06-22T04:37:18;21.20;99.90
26182;DHT22;13927;51.534;11.866;2023-06-22T04:39:51;21.30;99.90
26182;DHT22;13927;51.534;11.866;2023-06-22T04:42:21;21.40;99.90
26182;DHT22;13927;51.534;11.866;2023-06-22T04:44:54;21.50;99.90
26182;DHT22;13927;51.534;11.866;2023-06-22T04:47:24;21.60;99.90
26182;DHT22;13927;51.534;11.866;2023-06-22T04:49:55;21.60;99.90
26182;DHT22;13927;51.534;11.866;2023-06-22T04:52:26;21.80;99.90
26182;DHT22;13927;51.534;11.866;2023-06-22T04:54:56;21.90;99.90
26182;DHT22;13927;51.534;11.866;2023-06-22T04:57:35;22.00;99.90
26182;DHT22;13927;51.534;11.866;2023-06-22T05:00:15;22.10;99.90
26182;DHT22;13927;51.534;11.866;2023-06-22T05:02:46;22.20;99.90
26182;DHT22;13927;51.534;11.866;2023-06-22T05:05:17;22.30;99.90
26182;DHT22;13927;51.534;11.866;2023-06-22T05:08:13;22.30;99.90
26182;DHT22;13927;51.534;11.866;2023-06-22T05:11:03;22.40;99.90
26182;DHT22;13927;51.534;11.866;2023-06-22T05:13:35;22.30;99.90
26182;DHT22;13927;51.534;11.866;2023-06-22T05:16:04;22.40;99.90
26182;DHT22;13927;51.534;11.866;2023-06-22T05:18:34;22.40;99.90
26182;DHT22;13927;51.534;11.866;2023-06-22T05:21:07;22.30;99.90
26182;DHT22;13927;51.534;11.866;2023-06-22T05:23:35;22.20;99.90
26182;DHT22;13927;51.534;11.866;2023-06-22T05:26:04;22.30;99.90
26182;DHT22;13927;51.534;11.866;2023-06-22T05:28:38;22.20;99.90
26182;DHT22;13927;51.534;11.866;2023-06-22T05:31:20;22.20;99.90
26182;DHT22;13927;51.534;11.866;2023-06-22T05:33:52;22.20;99.90
26182;DHT22;13927;51.534;11.866;2023-06-22T05:36:20;22.20;99.90
26182;DHT22;13927;51.534;11.866;2023-06-22T05:38:56;22.20;99.90
26182;DHT22;13927;51.534;11.866;2023-06-22T05:41:27;22.40;99.90
26182;DHT22;13927;51.534;11.866;2023-06-22T05:44:34;22.40;99.90
26182;DHT22;13927;51.534;11.866;2023-06-22T05:47:09;22.60;99.90
26182;DHT22;13927;51.534;11.866;2023-06-22T05:50:16;22.70;99.90
26182;DHT22;13927;51.534;11.866;2023-06-22T05:52:52;22.80;99.90
26182;DHT22;13927;51.534;11.866;2023-06-22T05:55:23;22.90;99.90
26182;DHT22;13927;51.534;11.866;2023-06-22T05:58:28;23.00;99.90
26182;DHT22;13927;51.534;11.866;2023-06-22T06:00:55;23.10;99.90
26182;DHT22;13927;51.534;11.866;2023-06-22T06:03:21;23.20;99.90
26182;DHT22;13927;51.534;11.866;2023-06-22T06:05:48;23.30;99.90
26182;DHT22;13927;51.534;11.866;2023-06-22T06:08:14;23.60;99.90
26182;DHT22;13927;51.534;11.866;2023-06-22T06:10:41;23.80;99.90
26182;DHT22;13927;51.534;11.866;2023-06-22T06:13:07;24.10;99.90
26182;DHT22;13927;51.534;11.866;2023-06-22T06:15:34;24.30;99.90
26182;DHT22;13927;51.534;11.866;2023-06-22T06:18:00;24.60;99.90
26182;DHT22;13927;51.534;11.866;2023-06-22T06:20:29;24.70;99.90
26182;DHT22;13927;51.534;11.866;2023-06-22T06:22:56;24.90;99.90
26182;DHT22;13927;51.534;11.866;2023-06-22T06:25:24;24.90;99.90
26182;DHT22;13927;51.534;11.866;2023-06-22T06:27:52;25.00;99.90
26182;DHT22;13927;51.534;11.866;2023-06-22T06:30:20;24.90;99.90
26182;DHT22;13927;51.534;11.866;2023-06-22T06:32:49;24.90;99.90
26182;DHT22;13927;51.534;11.866;2023-06-22T06:35:15;25.00;99.90
26182;DHT22;13927;51.534;11.866;2023-06-22T06:37:47;25.00;99.90
26182;DHT22;13927;51.534;11.866;2023-06-22T06:40:15;25.10;99.90
26182;DHT22;13927;51.534;11.866;2023-06-22T06:42:44;25.20;99.90
26182;DHT22;13927;51.534;11.866;2023-06-22T06:45:22;25.30;99.90
26182;DHT22;13927;51.534;11.866;2023-06-22T06:47:50;25.40;99.90
26182;DHT22;13927;51.534;11.866;2023-06-22T06:50:18;25.30;99.90
26182;DHT22;13927;51.534;11.866;2023-06-22T06:52:45;25.40;99.90
26182;DHT22;13927;51.534;11.866;2023-06-22T06:55:11;25.40;99.90
26182;DHT22;13927;51.534;11.866;2023-06-22T06:57:40;25.50;99.90
26182;DHT22;13927;51.534;11.866;2023-06-22T07:00:11;25.50;99.90
26182;DHT22;13927;51.534;11.866;2023-06-22T07:02:41;25.50;99.90
26182;DHT22;13927;51.534;11.866;2023-06-22T07:05:09;25.60;99.90
26182;DHT22;13927;51.534;11.866;2023-06-22T07:07:36;25.70;99.90
26182;DHT22;13927;51.534;11.866;2023-06-22T07:10:03;25.70;99.90
26182;DHT22;13927;51.534;11.866;2023-06-22T07:12:30;25.90;99.90
26182;DHT22;13927;51.534;11.866;2023-06-22T07:15:08;25.90;99.90
26182;DHT22;13927;51.534;11.866;2023-06-22T07:17:35;26.10;99.90
26182;DHT22;13927;51.534;11.866;2023-06-22T07:20:03;26.00;99.90
26182;DHT22;13927;51.534;11.866;2023-06-22T07:22:36;25.90;99.90
26182;DHT22;13927;51.534;11.866;2023-06-22T07:25:03;25.90;99.90
26182;DHT22;13927;51.534;11.866;2023-06-22T07:27:35;26.00;99.90
26182;DHT22;13927;51.534;11.866;2023-06-22T07:30:10;26.10;99.90
26182;DHT22;13927;51.534;11.866;2023-06-22T07:32:37;26.30;99.90
26182;DHT22;13927;51.534;11.866;2023-06-22T07:35:03;26.40;99.90
26182;DHT22;13927;51.534;11.866;2023-06-22T07:37:30;26.70;99.90
26182;DHT22;13927;51.534;11.866;2023-06-22T07:39:58;26.90;99.90
26182;DHT22;13927;51.534;11.866;2023-06-22T07:42:25;27.20;99.90
26182;DHT22;13927;51.534;11.866;2023-06-22T07:44:53;27.40;99.90
26182;DHT22;13927;51.534;11.866;2023-06-22T07:47:20;27.40;99.90
26182;DHT22;13927;51.534;11.866;2023-06-22T07:49:50;27.60;99.90
26182;DHT22;13927;51.534;11.866;2023-06-22T07:52:17;27.80;99.90
26182;DHT22;13927;51.534;11.866;2023-06-22T07:54:44;27.90;99.90
26182;DHT22;13927;51.534;11.866;2023-06-22T07:57:10;28.10;99.90
26182;DHT22;13927;51.534;11.866;2023-06-22T07:59:37;28.30;99.90
26182;DHT22;13927;51.534;11.866;2023-06-22T08:02:04;28.50;99.90
26182;DHT22;13927;51.534;11.866;2023-06-22T08:04:31;28.30;99.90
26182;DHT22;13927;51.534;11.866;2023-06-22T08:07:00;28.30;99.90
26182;DHT22;13927;51.534;11.866;2023-06-22T08:09:33;28.20;99.90
26182;DHT22;13927;51.534;11.866;2023-06-22T08:12:00;28.00;99.90
26182;DHT22;13927;51.534;11.866;2023-06-22T08:14:27;27.90;99.90
26182;DHT22;13927;51.534;11.866;2023-06-22T08:16:55;28.10;99.90
26182;DHT22;13927;51.534;11.866;2023-06-22T08:19:22;28.10;99.90
26182;DHT22;13927;51.534;11.866;2023-06-22T08:21:49;28.30;99.90
26182;DHT22;13927;51.534;11.866;2023-06-22T08:24:17;28.50;99.90
26182;DHT22;13927;51.534;11.866;2023-06-22T08:26:44;28.50;99.90
26182;DHT22;13927;51.534;11.866;2023-06-22T08:29:10;28.60;99.90
26182;DHT22;13927;51.534;11.866;2023-06-22T08:31:37;28.60;99.90
26182;DHT22;13927;51.534;11.866;2023-06-22T08:34:03;28.70;99.90
26182;DHT22;13927;51.534;11.866;2023-06-22T08:36:31;28.80;99.90
26182;DHT22;13927;51.534;11.866;2023-06-22T08:39:07;29.00;99.90
26182;DHT22;13927;51.534;11.866;2023-06-22T08:41:34;29.10;99.90
26182;DHT22;13927;51.534;11.866;2023-06-22T08:44:01;29.30;99.90
26182;DHT22;13927;51.534;11.866;2023-06-22T08:46:30;29.50;99.90
26182;DHT22;13927;51.534;11.866;2023-06-22T08:48:59;29.50;99.90
26182;DHT22;13927;51.534;11.866;2023-06-22T08:51:26;29.70;99.90
26182;DHT22;13927;51.534;11.866;2023-06-22T08:53:53;30.00;99.90
26182;DHT22;13927;51.534;11.866;2023-06-22T08:56:19;30.10;99.90
26182;DHT22;13927;51.534;11.866;2023-06-22T08:58:46;30.50;99.90
26182;DHT22;13927;51.534;11.866;2023-06-22T09:01:12;30.60;99.90
26182;DHT22;13927;51.534;11.866;2023-06-22T09:03:38;30.80;99.90
26182;DHT22;13927;51.534;11.866;2023-06-22T09:06:04;30.70;99.90
26182;DHT22;13927;51.534;11.866;2023-06-22T09:08:31;30.90;99.90
26182;DHT22;13927;51.534;11.866;2023-06-22T09:10:58;31.20;99.90
26182;DHT22;13927;51.534;11.866;2023-06-22T09:13:25;31.40;99.90
26182;DHT22;13927;51.534;11.866;2023-06-22T09:15:52;31.60;99.90
26182;DHT22;13927;51.534;11.866;2023-06-22T09:18:19;31.90;99.90
26182;DHT22;13927;51.534;11.866;2023-06-22T09:20:45;32.10;99.90
26182;DHT22;13927;51.534;11.866;2023-06-22T09:23:11;32.40;99.90
26182;DHT22;13927;51.534;11.866;2023-06-22T09:25:37;32.50;99.90
26182;DHT22;13927;51.534;11.866;2023-06-22T09:28:04;32.60;99.90
26182;DHT22;13927;51.534;11.866;2023-06-22T09:30:30;32.80;99.90
26182;DHT22;13927;51.534;11.866;2023-06-22T09:32:56;32.90;99.90
26182;DHT22;13927;51.534;11.866;2023-06-22T09:35:22;33.10;99.90
26182;DHT22;13927;51.534;11.866;2023-06-22T09:37:49;33.10;99.90
26182;DHT22;13927;51.534;11.866;2023-06-22T09:40:14;33.20;99.90
26182;DHT22;13927;51.534;11.866;2023-06-22T09:42:42;33.40;99.90
26182;DHT22;13927;51.534;11.866;2023-06-22T09:45:09;33.30;99.90
26182;DHT22;13927;51.534;11.866;2023-06-22T09:47:35;33.40;99.90
26182;DHT22;13927;51.534;11.866;2023-06-22T09:50:01;33.60;99.90
26182;DHT22;13927;51.534;11.866;2023-06-22T09:52:27;33.40;99.90
26182;DHT22;13927;51.534;11.866;2023-06-22T09:54:53;33.40;99.90
26182;DHT22;13927;51.534;11.866;2023-06-22T09:57:20;33.30;99.90
26182;DHT22;13927;51.534;11.866;2023-06-22T09:59:46;32.90;99.90
26182;DHT22;13927;51.534;11.866;2023-06-22T10:02:12;32.70;99.90
26182;DHT22;13927;51.534;11.866;2023-06-22T10:04:39;32.70;99.90
26182;DHT22;13927;51.534;11.866;2023-06-22T10:07:05;32.90;99.90
26182;DHT22;13927;51.534;11.866;2023-06-22T10:09:32;33.10;99.90
26182;DHT22;13927;51.534;11.866;2023-06-22T10:11:58;33.30;99.90
26182;DHT22;13927;51.534;11.866;2023-06-22T10:14:25;33.60;99.90
26182;DHT22;13927;51.534;11.866;2023-06-22T10:16:53;33.80;99.90
26182;DHT22;13927;51.534;11.866;2023-06-22T10:19:19;33.80;99.90
26182;DHT22;13927;51.534;11.866;2023-06-22T10:21:45;34.00;99.90
26182;DHT22;13927;51.534;11.866;2023-06-22T10:24:11;34.40;99.90
26182;DHT22;13927;51.534;11.866;2023-06-22T10:26:38;34.60;99.90
26182;DHT22;13927;51.534;11.866;2023-06-22T10:29:04;34.60;99.90
26182;DHT22;13927;51.534;11.866;2023-06-22T10:31:30;34.40;99.90
26182;DHT22;13927;51.534;11.866;2023-06-22T10:33:57;33.90;99.90
26182;DHT22;13927;51.534;11.866;2023-06-22T10:36:23;34.00;99.90
26182;DHT22;13927;51.534;11.866;2023-06-22T10:38:50;34.30;99.90
26182;DHT22;13927;51.534;11.866;2023-06-22T10:41:16;34.40;99.90
26182;DHT22;13927;51.534;11.866;2023-06-22T10:43:43;34.40;99.90
26182;DHT22;13927;51.534;11.866;2023-06-22T10:46:09;34.60;99.90
26182;DHT22;13927;51.534;11.866;2023-06-22T10:48:35;34.80;99.90
26182;DHT22;13927;51.534;11.866;2023-06-22T10:51:01;35.10;99.90
26182;DHT22;13927;51.534;11.866;2023-06-22T10:53:27;35.40;99.90
26182;DHT22;13927;51.534;11.866;2023-06-22T10:55:53;35.80;99.90
26182;DHT22;13927;51.534;11.866;2023-06-22T10:58:20;35.80;99.90
26182;DHT22;13927;51.534;11.866;2023-06-22T11:00:45;35.50;99.90
26182;DHT22;13927;51.534;11.866;2023-06-22T11:03:11;35.20;99.90
26182;DHT22;13927;51.534;11.866;2023-06-22T11:05:39;34.30;99.90
26182;DHT22;13927;51.534;11.866;2023-06-22T11:08:05;34.50;99.90
26182;DHT22;13927;51.534;11.866;2023-06-22T11:10:31;34.70;99.90
26182;DHT22;13927;51.534;11.866;2023-06-22T11:12:57;35.20;99.90
26182;DHT22;13927;51.534;11.866;2023-06-22T11:15:24;35.50;99.90
26182;DHT22;13927;51.534;11.866;2023-06-22T11:17:51;35.70;99.90
26182;DHT22;13927;51.534;11.866;2023-06-22T11:20:16;35.80;98.40
26182;DHT22;13927;51.534;11.866;2023-06-22T11:22:42;35.80;97.40
26182;DHT22;13927;51.534;11.866;2023-06-22T11:25:08;35.40;96.90
26182;DHT22;13927;51.534;11.866;2023-06-22T11:27:35;35.20;98.60
26182;DHT22;13927;51.534;11.866;2023-06-22T11:30:01;35.00;98.60
26182;DHT22;13927;51.534;11.866;2023-06-22T11:32:28;35.20;99.80
26182;DHT22;13927;51.534;11.866;2023-06-22T11:34:53;35.10;98.80
26182;DHT22;13927;51.534;11.866;2023-06-22T11:37:19;35.50;98.00
26182;DHT22;13927;51.534;11.866;2023-06-22T11:39:45;35.40;97.10
26182;DHT22;13927;51.534;11.866;2023-06-22T11:42:11;35.40;97.10
26182;DHT22;13927;51.534;11.866;2023-06-22T11:44:37;35.60;96.00
26182;DHT22;13927;51.534;11.866;2023-06-22T11:47:04;35.70;97.10
26182;DHT22;13927;51.534;11.866;2023-06-22T11:49:31;35.90;95.80
26182;DHT22;13927;51.534;11.866;2023-06-22T11:51:57;36.40;94.80
26182;DHT22;13927;51.534;11.866;2023-06-22T11:54:23;36.50;95.20
26182;DHT22;13927;51.534;11.866;2023-06-22T11:56:49;36.20;94.70
26182;DHT22;13927;51.534;11.866;2023-06-22T11:59:15;36.00;94.20
26182;DHT22;13927;51.534;11.866;2023-06-22T12:01:41;35.90;95.80
26182;DHT22;13927;51.534;11.866;2023-06-22T12:04:07;35.60;93.50
26182;DHT22;13927;51.534;11.866;2023-06-22T12:06:38;35.20;93.50
26182;DHT22;13927;51.534;11.866;2023-06-22T12:09:07;35.20;97.00
26182;DHT22;13927;51.534;11.866;2023-06-22T12:11:33;35.60;97.70
26182;DHT22;13927;51.534;11.866;2023-06-22T12:13:59;36.00;95.10
26182;DHT22;13927;51.534;11.866;2023-06-22T12:16:28;36.30;95.30
26182;DHT22;13927;51.534;11.866;2023-06-22T12:18:54;36.70;94.60
26182;DHT22;13927;51.534;11.866;2023-06-22T12:21:20;37.10;92.90
26182;DHT22;13927;51.534;11.866;2023-06-22T12:23:46;37.30;93.70
26182;DHT22;13927;51.534;11.866;2023-06-22T12:26:12;37.40;93.50
26182;DHT22;13927;51.534;11.866;2023-06-22T12:28:38;37.60;91.70
26182;DHT22;13927;51.534;11.866;2023-06-22T12:31:04;37.40;92.50
26182;DHT22;13927;51.534;11.866;2023-06-22T12:33:30;37.50;92.60
26182;DHT22;13927;51.534;11.866;2023-06-22T12:35:56;37.50;93.40
26182;DHT22;13927;51.534;11.866;2023-06-22T12:38:22;37.70;92.20
26182;DHT22;13927;51.534;11.866;2023-06-22T12:40:51;37.90;91.70
26182;DHT22;13927;51.534;11.866;2023-06-22T12:43:17;37.70;91.90
26182;DHT22;13927;51.534;11.866;2023-06-22T12:45:43;37.40;90.50
26182;DHT22;13927;51.534;11.866;2023-06-22T12:48:09;36.70;91.30
26182;DHT22;13927;51.534;11.866;2023-06-22T12:50:35;36.00;90.90
26182;DHT22;13927;51.534;11.866;2023-06-22T12:53:01;35.70;93.20
26182;DHT22;13927;51.534;11.866;2023-06-22T12:55:28;35.60;93.40
26182;DHT22;13927;51.534;11.866;2023-06-22T12:57:54;35.50;92.60
26182;DHT22;13927;51.534;11.866;2023-06-22T13:00:20;35.40;94.40
26182;DHT22;13927;51.534;11.866;2023-06-22T13:02:46;35.60;92.50
26182;DHT22;13927;51.534;11.866;2023-06-22T13:05:12;35.50;93.40
26182;DHT22;13927;51.534;11.866;2023-06-22T13:07:38;35.30;94.60
26182;DHT22;13927;51.534;11.866;2023-06-22T13:10:04;35.20;93.50
26182;DHT22;13927;51.534;11.866;2023-06-22T13:12:31;35.40;93.60
26182;DHT22;13927;51.534;11.866;2023-06-22T13:14:57;35.70;93.90
26182;DHT22;13927;51.534;11.866;2023-06-22T13:17:23;35.80;93.30
26182;DHT22;13927;51.534;11.866;2023-06-22T13:19:49;35.90;93.60
26182;DHT22;13927;51.534;11.866;2023-06-22T13:24:58;36.00;92.90
26182;DHT22;13927;51.534;11.866;2023-06-22T13:27:25;36.30;93.70
26182;DHT22;13927;51.534;11.866;2023-06-22T13:29:51;36.60;93.00
26182;DHT22;13927;51.534;11.866;2023-06-22T13:32:18;36.80;92.50
26182;DHT22;13927;51.534;11.866;2023-06-22T13:34:44;37.10;92.40
26182;DHT22;13927;51.534;11.866;2023-06-22T13:37:10;37.30;92.20
26182;DHT22;13927;51.534;11.866;2023-06-22T13:39:36;37.50;91.90
26182;DHT22;13927;51.534;11.866;2023-06-22T13:42:02;37.30;90.60
26182;DHT22;13927;51.534;11.866;2023-06-22T13:44:28;36.60;90.80
26182;DHT22;13927;51.534;11.866;2023-06-22T13:46:57;36.00;91.40
26182;DHT22;13927;51.534;11.866;2023-06-22T13:49:23;35.70;93.00
26182;DHT22;13927;51.534;11.866;2023-06-22T13:51:49;35.70;92.10
26182;DHT22;13927;51.534;11.866;2023-06-22T13:54:16;35.40;92.30
26182;DHT22;13927;51.534;11.866;2023-06-22T13:56:42;35.10;92.80
26182;DHT22;13927;51.534;11.866;2023-06-22T13:59:08;35.10;93.10
26182;DHT22;13927;51.534;11.866;2023-06-22T14:01:36;35.00;93.40
26182;DHT22;13927;51.534;11.866;2023-06-22T14:04:02;34.60;92.90
26182;DHT22;13927;51.534;11.866;2023-06-22T14:06:28;34.20;94.00
26182;DHT22;13927;51.534;11.866;2023-06-22T14:08:54;34.20;96.10
26182;DHT22;13927;51.534;11.866;2023-06-22T14:11:20;34.60;94.80
26182;DHT22;13927;51.534;11.866;2023-06-22T14:13:46;34.80;94.50
26182;DHT22;13927;51.534;11.866;2023-06-22T14:16:12;34.90;94.00
26182;DHT22;13927;51.534;11.866;2023-06-22T14:18:38;34.90;93.80
26182;DHT22;13927;51.534;11.866;2023-06-22T14:21:04;34.50;94.50
26182;DHT22;13927;51.534;11.866;2023-06-22T14:23:30;34.20;95.30
26182;DHT22;13927;51.534;11.866;2023-06-22T14:25:56;34.10;96.00
26182;DHT22;13927;51.534;11.866;2023-06-22T14:28:21;34.00;96.10
26182;DHT22;13927;51.534;11.866;2023-06-22T14:30:47;33.80;96.20
26182;DHT22;13927;51.534;11.866;2023-06-22T14:33:13;33.60;97.10
26182;DHT22;13927;51.534;11.866;2023-06-22T14:35:39;33.60;97.20
26182;DHT22;13927;51.534;11.866;2023-06-22T14:38:06;33.50;97.60
26182;DHT22;13927;51.534;11.866;2023-06-22T14:40:32;33.30;99.10
26182;DHT22;13927;51.534;11.866;2023-06-22T14:42:59;33.30;98.20
26182;DHT22;13927;51.534;11.866;2023-06-22T14:45:25;33.10;97.70
26182;DHT22;13927;51.534;11.866;2023-06-22T14:47:52;33.00;97.60
26182;DHT22;13927;51.534;11.866;2023-06-22T14:50:18;33.00;98.30
26182;DHT22;13927;51.534;11.866;2023-06-22T14:52:45;32.80;99.10
26182;DHT22;13927;51.534;11.866;2023-06-22T14:55:11;32.80;99.90
26182;DHT22;13927;51.534;11.866;2023-06-22T14:57:38;32.80;99.90
26182;DHT22;13927;51.534;11.866;2023-06-22T15:00:04;32.60;99.90
26182;DHT22;13927;51.534;11.866;2023-06-22T15:02:32;32.70;99.90
26182;DHT22;13927;51.534;11.866;2023-06-22T15:04:58;32.80;99.90
26182;DHT22;13927;51.534;11.866;2023-06-22T15:07:24;32.90;99.90
26182;DHT22;13927;51.534;11.866;2023-06-22T15:09:50;33.00;99.90
26182;DHT22;13927;51.534;11.866;2023-06-22T15:12:17;33.10;99.90
26182;DHT22;13927;51.534;11.866;2023-06-22T15:14:43;32.90;99.90
26182;DHT22;13927;51.534;11.866;2023-06-22T15:17:10;32.90;99.90
26182;DHT22;13927;51.534;11.866;2023-06-22T15:19:36;32.90;99.90
26182;DHT22;13927;51.534;11.866;2023-06-22T15:22:07;33.00;99.90
26182;DHT22;13927;51.534;11.866;2023-06-22T15:24:34;32.80;99.90
26182;DHT22;13927;51.534;11.866;2023-06-22T15:27:00;32.90;99.90
26182;DHT22;13927;51.534;11.866;2023-06-22T15:29:28;32.80;99.90
26182;DHT22;13927;51.534;11.866;2023-06-22T15:31:59;32.90;99.90
26182;DHT22;13927;51.534;11.866;2023-06-22T15:34:26;33.00;99.90
26182;DHT22;13927;51.534;11.866;2023-06-22T15:36:52;32.80;99.90